Whale Point, California Weather observations

Data are for observation ending at time listed.
 Day   Time    Ave.   Ave.  Ave.  Vector   Max.   Stn.    Total    Solar   Ave.  
  of    of     Air    Rel.  Wind   Wind    Wind   Baro.  Precip.   Rad.    Soil  
Year   Day     Temp.  Hum.  Speed  Dir.    Gust   Pres.                    Temp. 
2014   (PST)    F      %     mph   deg.    mph     mb.     in.     W/m2     F   
------------------------------------------------------------------------------
 273   19:40   58.5    85    1.2    42      2.3   988.2    0.00       0    73.4
 273   19:50   59.1    83    1.2   193      2.9   988.2    0.00       0    73.4
 273   20:00   58.9    83    0.8    21      2.9   988.2    0.00       0    73.3
 273   20:10   59.4    80    1.4   154      2.5   988.2    0.00       0    73.3
 273   20:20   61.1    74    1.7   152      2.6   988.2    0.00       0    73.3
 273   20:30   61.4    73    1.8   154      2.9   987.8    0.00       0    73.3
 273   20:40   61.0    73    0.7    34      2.9   987.8    0.00       0    73.3
 273   20:50   60.7    73    1.4   149      3.5   987.8    0.00       0    73.3
 273   21:00   61.2    75    0.8    82      1.7   987.8    0.00       0    73.2
 273   21:10   61.5    73    0.7    77      2.0   987.8    0.00       0    73.2
 273   21:20   61.8    72    1.9   170      4.2   987.8    0.00       0    73.1
 273   21:30   61.5    76    2.9   185      5.8   987.8    0.00       0    73.1
 273   21:40   61.3    77    3.2   175      5.6   987.8    0.00       0    73.1
 273   21:50   61.8    73    3.4   173      6.1   987.8    0.00       0    73.0
 273   22:00   61.8    74    3.3   176      6.1   987.8    0.00       0    73.0
 273   22:10   63.0    67    3.5   191      8.4   987.8    0.00       0    72.9
 273   22:20   63.8    63    3.0   187      6.8   987.8    0.00       0    72.9
 273   22:30   63.2    69    4.1   204      7.4   987.8    0.00       0    72.8
 273   22:40   60.8    76    4.7   207      9.8   987.8    0.00       0    72.7
 273   22:50   61.4    75    2.9   180      6.1   987.8    0.00       0    72.7
 273   23:00   63.6    60    2.3   142      6.3   987.8    0.00       0    72.6
 273   23:10   68.1    38    3.5    80     10.4   987.8    0.00       0    72.6
 273   23:20   69.3    39    2.4   190     10.0   987.8    0.00       0    72.5
 273   23:30   66.6    53    2.9   180      6.9   987.8    0.00       0    72.4
 273   23:40   64.0    56    2.2   238      5.7   987.8    0.00       0    72.4
 273   23:50   67.1    49    2.7   161      6.9   988.2    0.00       0    72.3
 274    0:00   62.9    65    3.7   169      8.3   987.8    0.00       0    72.3
 274    0:10   63.2    62    2.6   200      6.2   987.8    0.00       0    72.2
 274    0:20   65.3    51    2.6   230      7.9   987.8    0.00       0    72.2
 274    0:30   69.5    37    2.1   277      6.1   987.8    0.00       0    72.1
 274    0:40   71.0    34    4.5   340     12.9   987.8    0.00       0    72.1
 274    0:50   70.9    36    4.2   342     10.7   987.8    0.00       0    72.0
 274    1:00   70.1    38    4.2   336     13.4   988.2    0.00       0    71.9
 274    1:10   69.4    42    3.4   315     10.2   988.2    0.00       0    71.9
 274    1:20   66.5    54    3.0   218      7.4   988.2    0.00       0    71.9
 274    1:30   62.2    69    4.0   189     12.9   988.2    0.00       0    71.8
 274    1:40   62.6    67    3.2   209     11.0   988.2    0.00       0    71.7
 274    1:50   64.2    61    3.4   186      7.3   988.2    0.00       0    71.7
 274    2:00   66.8    51    3.7   284     13.2   988.2    0.00       0    71.6
 274    2:10   69.5    45    3.6   326     11.6   988.2    0.00       0    71.5
 274    2:20   70.8    42    4.7   349     15.1   987.8    0.00       0    71.5
 274    2:30   70.7    42    4.4   333     15.1   987.8    0.00       0    71.4
 274    2:40   70.9    42    5.9     1     14.0   987.8    0.00       0    71.4
 274    2:50   71.1    41    5.4    21     14.0   987.8    0.00       0    71.3
 274    3:00   70.9    42    5.6   358     20.0   987.8    0.00       0    71.3
 274    3:10   70.5    42    3.5   358      9.1   987.8    0.00       0    71.2
 274    3:20   70.6    42    3.2     8     12.1   988.2    0.00       0    71.2
 274    3:30   70.8    40    3.3    13      8.7   987.8    0.00       0    71.1
 274    3:40   71.3    39    3.7     0      7.4   988.2    0.00       0    71.1
 274    3:50   70.8    40    3.3    11      8.8   988.2    0.00       0    71.0
 274    4:00   70.4    42    3.9   332     12.0   988.2    0.00       0    71.0
 274    4:10   69.9    43    1.1   357      3.4   988.2    0.00       0    70.9
 274    4:20   69.2    43    1.5   221      3.7   988.2    0.00       0    70.8
 274    4:30   69.4    42    2.2   352      6.7   988.2    0.00       0    70.8
 274    4:40   69.3    43    2.2   268      4.6   988.5    0.00       0    70.8
 274    4:50   65.7    52    2.8   179      5.6   988.5    0.00       0    70.7
 274    5:00   65.6    48    2.3    57      6.4   988.5    0.00       0    70.6
 274    5:10   68.9    40    1.2   212      3.2   988.8    0.00       0    70.6
 274    5:20   70.1    37    1.8    24      5.3   988.8    0.00       0    70.6
 274    5:30   70.8    36    4.0   354      8.6   988.8    0.00       0    70.6
 274    5:40   71.5    35    3.7   358      9.2   988.8    0.00       0    70.5
 274    5:50   71.8    34    2.1   172      8.2   988.8    0.00       1    70.4
 274    6:00   72.0    32    2.4    81      6.8   989.2    0.00       3    70.4
 274    6:10   72.2    32    4.0    22     12.3   989.2    0.00       6    70.4
 274    6:20   72.1    31    3.0   160      8.0   989.2    0.00       9    70.3
 274    6:30   72.3    30    3.8    73      7.5   989.5    0.00      13    70.3
 274    6:40   72.4    29    4.9    74      9.6   989.5    0.00      16    70.2
 274    6:50   72.4    28    3.6   123      8.0   989.5    0.00      18    70.2
 274    7:00   71.4    29    4.0   135      7.5   989.5    0.00      20    70.2
 274    7:10   71.7    29    3.0   137      4.3   989.8    0.00      21    70.1
 274    7:20   72.3    28    3.0   142      5.9   989.8    0.00      23    70.1
 274    7:30   72.1    29    2.6   153      5.1   989.8    0.00      24    70.0
 274    7:40   71.7    30    0.9   305      3.3   989.8    0.00      25    70.0
 274    7:50   71.7    31    1.5    78      3.6   989.8    0.00     103    70.0
 274    8:00   73.8    29    1.2    45      3.6   990.2    0.00     392    69.9
 274    8:10   73.4    30    2.1    25      3.7   990.2    0.00     428    69.8
 274    8:20   75.7    28    0.3   122      1.8   990.5    0.00     462    69.7
 274    8:30   77.8    26    1.7   180      2.9   990.5    0.00     495    69.7
 274    8:40   76.9    27    2.0   197      3.7   990.5    0.00     527    69.7
 274    8:50   76.8    27    1.8   192      3.1   990.5    0.00     556    69.7
 274    9:00   76.4    27    2.9   198      4.5   990.5    0.00     587    69.6
 274    9:10   76.4    27    2.9   190      4.8   990.5    0.00     616    69.5
 274    9:20   75.7    28    3.6   204      5.1   990.5    0.00     640    69.5
 274    9:30   75.8    28    3.2   200      4.9   990.9    0.00     665    69.6
 274    9:40   75.4    30    2.6   216      5.2   990.9    0.00     690    69.5
 274    9:50   75.2    30    2.1   220      4.7   990.9    0.00     712    69.5
 274   10:00   75.3    30    2.4   205      5.6   990.9    0.00     733    69.5
 274   10:10   75.5    30    3.0   212      5.6   990.9    0.00     753    69.5
 274   10:20   76.3    28    4.2   217      5.3   990.5    0.00     772    69.5
 274   10:30   75.7    28    4.2   221      5.3   990.5    0.00     788    69.5
 274   10:40   75.9    28    4.5   219      5.7   990.5    0.00     802    69.5
 274   10:50   75.9    27    3.5   224      4.6   990.5    0.00     815    69.5
 274   11:00   76.3    26    3.9   223      4.9   990.5    0.00     827    69.5
 274   11:10   76.6    27    4.4   224      5.6   990.5    0.00     836    69.6
 274   11:20   77.3    26    3.9   218      5.3   990.5    0.00     845    69.6
 274   11:30   78.4    24    4.6   219      5.8   990.5    0.00     851    69.6
 274   11:40   78.0    25    4.6   217      6.1   990.5    0.00     856    69.7
 274   11:50   78.5    24    4.8   220      7.1   990.5    0.00     860    69.7
 274   12:00   78.4    24    4.0   220      6.0   990.2    0.00     860    69.8
 274   12:10   79.0    24    4.4   222      6.4   990.2    0.00     860    69.9
 274   12:20   78.3    25    4.3   218      6.6   990.2    0.00     856    70.0
 274   12:30   78.2    23    4.6   224      5.6   990.2    0.00     852    70.1
 274   12:40   78.0    23    4.4   218      6.1   989.8    0.00     846    70.2
 274   12:50   79.9    22    4.8   223      6.4   989.8    0.00     838    70.3
 274   13:00   80.8    20    5.2   235      7.2   989.8    0.00     828    70.4
 274   13:10   80.5    21    5.0   221      6.1   989.8    0.00     815    70.5
 274   13:20   79.7    24    3.3   220      4.8   989.8    0.00     800    70.6
 274   13:30   80.3    22    3.3   217      5.0   989.8    0.00     784    70.8
 274   13:40   79.7    23    2.8   223      4.4   989.8    0.00     766    70.9
 274   13:50   79.0    28    2.1   201      3.9   989.8    0.00     746    71.0
 274   14:00   79.9    22    2.8   218      4.7   989.8    0.00     725    71.1
 274   14:10   80.7    20    4.1   223      5.4   989.8    0.00     703    71.3
 274   14:20   79.9    26    2.6   217      4.3   989.8    0.00     679    71.4
 274   14:30   80.7    20    2.9   215      4.6   989.8    0.00     653    71.6
 274   14:40   79.4    30    2.3   222      4.8   989.5    0.00     627    71.7
 274   14:50   76.8    37    2.7   204      5.3   989.5    0.00     599    71.9
 274   15:00   78.3    35    1.8   199      3.6   989.5    0.00     569    72.1
 274   15:10   79.6    33    2.9   210      5.8   989.5    0.00     539    72.2
 274   15:20   75.4    45    3.0   203      5.9   989.5    0.00     506    72.4
 274   15:30   75.9    41    3.2   209      6.5   989.5    0.00     473    72.6
 274   15:40   74.7    37    4.2   207      6.1   989.5    0.00     439    72.7
 274   15:50   74.0    38    2.8   202      5.9   989.5    0.00     405    72.9
 274   16:00   76.3    36    3.9   206      6.6   989.5    0.00     369    73.1
 274   16:10   75.5    36    4.0   211      7.2   989.5    0.00     333    73.2
 274   16:20   75.6    37    3.7   226      5.5   989.2    0.00     297    73.4
 274   16:30   76.0    37    1.5   209      4.5   989.2    0.00     260    73.6
 274   16:40   74.6    44    2.8   214      5.4   989.5    0.00     224    73.7
 274   16:50   75.8    40    0.9   219      2.6   989.5    0.00     188    73.9
 274   17:00   77.5    37    0.7   296      2.7   989.5    0.00     166    74.0
 274   17:10   76.2    43    1.9   234      3.7   989.5    0.00     145    74.2
 274   17:20   74.5    40    0.5   336      1.5   989.5    0.00      92    74.3
 274   17:30   74.9    38    0.6   304      2.0   989.5    0.00      61    74.4
 274   17:40   74.7    40    2.2   188      3.9   989.5    0.00      34    74.5
 274   17:50   73.0    42    0.9    31      2.1   989.5    0.00      12    74.6
 274   18:00   71.9    42    0.7    92      2.0   989.5    0.00       3    74.7
 274   18:10   72.0    40    1.9    99      3.1   989.5    0.00       1    74.8
 274   18:20   72.8    35    1.1    96      2.6   989.5    0.00       0    74.9
 274   18:30   72.7    35    0.9   146      2.6   989.8    0.00       0    75.0
 274   18:40   72.9    30    1.7    56      5.1   989.8    0.00       0    75.0
 274   18:50   75.8    23    2.7    96      6.1   989.8    0.00       0    75.1
 274   19:00   74.0    32    1.5   209      3.3   989.8    0.00       0    75.1
 274   19:10   74.1    26    1.6    69      3.9   990.2    0.00       0    75.1
 274   19:20   77.5    19    2.6    96      5.2   990.2    0.00       0    75.2
 274   19:30   78.1    20    2.0   111      5.7   990.2    0.00       0    75.2

Return to Whale Point graphs page.


Western Regional Climate Center,wrcc@dri.edu